createdAt,value
2023-04-27T00:00:00.941Z,3.45
2023-04-27T00:03:35.635Z,3.40
2023-04-27T00:06:42.445Z,3.39
2023-04-27T00:09:48.326Z,3.34
2023-04-27T00:12:55.425Z,3.33
2023-04-27T00:16:03.980Z,3.26
2023-04-27T00:19:14.189Z,3.15
2023-04-27T00:22:22.195Z,3.08
2023-04-27T00:25:29.180Z,3.09
2023-04-27T00:28:35.192Z,2.94
2023-04-27T00:31:41.928Z,2.96
2023-04-27T00:34:50.514Z,2.87
2023-04-27T00:37:57.947Z,2.81
2023-04-27T00:41:09.480Z,2.83
2023-04-27T00:44:16.206Z,2.83
2023-04-27T00:47:22.985Z,2.74
2023-04-27T00:50:34.476Z,2.61
2023-04-27T00:53:42.033Z,2.56
2023-04-27T00:56:52.160Z,2.50
2023-04-27T00:59:58.670Z,2.48
2023-04-27T01:03:06.629Z,2.53
2023-04-27T01:06:15.191Z,2.50
2023-04-27T01:09:24.104Z,2.46
2023-04-27T01:12:30.077Z,2.48
2023-04-27T01:15:37.059Z,2.58
2023-04-27T01:18:44.619Z,2.55
2023-04-27T01:21:54.054Z,2.51
2023-04-27T01:25:02.575Z,2.56
2023-04-27T01:28:11.327Z,2.47
2023-04-27T01:31:17.719Z,2.47
2023-04-27T01:34:27.161Z,2.46
2023-04-27T01:37:33.069Z,2.32
2023-04-27T01:40:42.529Z,2.25
2023-04-27T01:43:48.399Z,2.21
2023-04-27T01:46:55.190Z,2.17
2023-04-27T01:50:01.143Z,2.11
2023-04-27T01:53:07.905Z,2.05
2023-04-27T01:56:17.050Z,2.03
2023-04-27T01:59:23.915Z,2.03
2023-04-27T02:02:31.009Z,2.07
2023-04-27T02:05:37.996Z,2.09
2023-04-27T02:08:44.036Z,2.10
2023-04-27T02:11:53.337Z,2.15
2023-04-27T02:14:59.403Z,2.13
2023-04-27T02:18:06.907Z,2.15
2023-04-27T02:21:13.266Z,2.14
2023-04-27T02:24:20.564Z,2.10
2023-04-27T02:27:29.256Z,2.07
2023-04-27T02:30:38.159Z,2.06
2023-04-27T02:33:44.176Z,2.13
2023-04-27T02:36:50.958Z,2.12
2023-04-27T02:39:56.950Z,2.10
2023-04-27T02:43:06.599Z,1.98
2023-04-27T02:46:12.629Z,1.96
2023-04-27T02:49:19.653Z,1.93
2023-04-27T02:52:25.755Z,1.92
2023-04-27T02:55:32.991Z,1.93
2023-04-27T02:58:41.477Z,1.89
2023-04-27T03:01:51.659Z,1.92
2023-04-27T03:04:57.902Z,1.92
2023-04-27T03:08:04.703Z,1.81
2023-04-27T03:11:12.817Z,1.79
2023-04-27T03:14:23.492Z,1.88
2023-04-27T03:17:31.558Z,1.84
2023-04-27T03:20:38.325Z,1.88
2023-04-27T03:23:44.318Z,1.79
2023-04-27T03:26:51.527Z,1.69
2023-04-27T03:30:03.870Z,1.70
2023-04-27T03:33:10.752Z,1.81
2023-04-27T03:36:16.886Z,1.90
2023-04-27T03:39:23.743Z,1.93
2023-04-27T03:42:29.871Z,1.93
2023-04-27T03:45:39.481Z,1.95
2023-04-27T03:48:47.498Z,1.95
2023-04-27T03:51:54.754Z,2.02
2023-04-27T03:55:00.864Z,2.15
2023-04-27T03:58:07.817Z,2.17
2023-04-27T04:01:16.929Z,2.27
2023-04-27T04:04:24.821Z,2.36
2023-04-27T04:07:31.511Z,2.48
2023-04-27T04:10:39.543Z,2.59
2023-04-27T04:13:46.439Z,2.68
2023-04-27T04:16:56.180Z,2.73
2023-04-27T04:20:02.491Z,2.71
2023-04-27T04:23:09.537Z,2.82
2023-04-27T04:26:15.845Z,2.87
2023-04-27T04:29:22.998Z,2.96
2023-04-27T04:32:32.212Z,2.93
2023-04-27T04:35:41.838Z,2.98
2023-04-27T04:38:47.957Z,3.06
2023-04-27T04:41:56.736Z,3.08
2023-04-27T04:45:07.678Z,3.36
2023-04-27T04:48:18.433Z,3.78
2023-04-27T04:51:24.853Z,3.94
2023-04-27T04:54:31.847Z,4.20
2023-04-27T04:57:38.242Z,4.33
2023-04-27T05:00:46.047Z,4.46
2023-04-27T05:03:56.559Z,4.54
2023-04-27T05:07:04.875Z,4.62
2023-04-27T05:10:12.064Z,4.78
2023-04-27T05:13:18.957Z,4.84
2023-04-27T05:16:26.740Z,4.82
2023-04-27T05:19:37.320Z,4.85
2023-04-27T05:22:47.765Z,4.98
2023-04-27T05:25:54.473Z,5.07
2023-04-27T05:29:00.361Z,5.13
2023-04-27T05:32:17.092Z,5.19
2023-04-27T05:35:25.740Z,5.35
2023-04-27T05:38:33.754Z,5.45
2023-04-27T05:41:39.834Z,5.61
2023-04-27T05:44:46.629Z,6.49
2023-04-27T05:47:52.781Z,7.44
2023-04-27T05:51:09.362Z,8.89
2023-04-27T05:54:15.376Z,8.97
2023-04-27T05:57:22.244Z,9.76
2023-04-27T06:00:28.847Z,9.91
2023-04-27T06:03:35.975Z,10.42
2023-04-27T06:06:45.104Z,10.58
2023-04-27T06:09:56.918Z,11.35
2023-04-27T06:13:05.028Z,11.66
2023-04-27T06:16:18.130Z,11.32
2023-04-27T06:19:24.122Z,12.33
2023-04-27T06:22:34.635Z,12.90
2023-04-27T06:25:40.992Z,13.08
2023-04-27T06:28:47.993Z,14.01
2023-04-27T06:31:53.946Z,13.99
2023-04-27T06:35:00.993Z,12.98
2023-04-27T06:38:10.765Z,12.78
2023-04-27T06:41:17.516Z,13.35
2023-04-27T06:44:25.861Z,14.15
2023-04-27T06:47:32.824Z,14.54
2023-04-27T06:50:38.741Z,14.17
2023-04-27T06:53:48.172Z,14.19
2023-04-27T06:56:55.088Z,14.60
2023-04-27T07:00:02.225Z,15.25
2023-04-27T07:03:08.388Z,14.57
2023-04-27T07:06:15.388Z,14.32
2023-04-27T07:09:27.500Z,15.42
2023-04-27T07:12:34.688Z,15.61
2023-04-27T07:15:40.760Z,14.47
2023-04-27T07:18:47.588Z,14.99
2023-04-27T07:21:53.685Z,15.86
2023-04-27T07:25:04.502Z,15.33
2023-04-27T07:28:10.689Z,16.56
2023-04-27T07:31:18.012Z,16.13
2023-04-27T07:34:24.337Z,14.68
2023-04-27T07:37:31.456Z,15.09
2023-04-27T07:40:40.655Z,15.95
2023-04-27T07:43:48.690Z,15.43
2023-04-27T07:46:58.805Z,13.79
2023-04-27T07:50:06.551Z,12.80
2023-04-27T07:53:12.590Z,12.93
2023-04-27T07:56:22.012Z,11.61
2023-04-27T07:59:28.094Z,11.30
2023-04-27T08:02:35.085Z,10.87
2023-04-27T08:05:41.423Z,10.27
2023-04-27T08:08:48.364Z,10.74
2023-04-27T08:11:57.314Z,12.76
2023-04-27T08:15:04.299Z,12.71
2023-04-27T08:18:10.253Z,11.86
2023-04-27T08:21:17.186Z,10.92
2023-04-27T08:24:24.012Z,10.55
2023-04-27T08:27:34.918Z,10.38
2023-04-27T08:30:40.987Z,10.38
2023-04-27T08:33:47.920Z,10.55
2023-04-27T08:36:54.382Z,10.05
2023-04-27T08:40:01.432Z,9.83
2023-04-27T08:43:12.029Z,9.89
2023-04-27T08:46:23.168Z,9.99
2023-04-27T08:49:29.711Z,9.62
2023-04-27T08:52:37.677Z,9.28
2023-04-27T08:55:43.735Z,9.08
2023-04-27T08:58:55.211Z,8.48
2023-04-27T09:02:01.655Z,8.21
2023-04-27T09:05:10.164Z,8.62
2023-04-27T09:08:16.079Z,8.75
2023-04-27T09:11:35.207Z,8.90
2023-04-27T09:14:47.257Z,8.86
2023-04-27T09:17:59.639Z,9.46
2023-04-27T09:21:14.249Z,9.86
2023-04-27T09:24:24.906Z,9.81
2023-04-27T09:27:31.067Z,10.13
2023-04-27T09:30:40.720Z,10.02
2023-04-27T09:33:49.045Z,9.64
2023-04-27T09:36:56.960Z,9.44
2023-04-27T09:40:05.868Z,8.99
2023-04-27T09:43:14.826Z,9.12
2023-04-27T09:46:26.276Z,9.09
2023-04-27T09:49:36.981Z,9.15
2023-04-27T09:52:43.165Z,9.44
2023-04-27T09:56:11.420Z,9.62
2023-04-27T09:59:45.001Z,9.40
2023-04-27T10:03:18.223Z,9.73
2023-04-27T10:07:06.878Z,9.83
2023-04-27T10:10:22.120Z,9.37
2023-04-27T10:13:30.392Z,9.33
2023-04-27T10:16:50.155Z,9.50
2023-04-27T10:20:02.094Z,9.44
2023-04-27T10:23:09.320Z,9.58
2023-04-27T10:26:15.353Z,9.22
2023-04-27T10:29:22.219Z,9.05
2023-04-27T10:32:29.875Z,9.59
2023-04-27T10:35:42.496Z,9.94
2023-04-27T10:38:48.643Z,10.22
2023-04-27T10:41:59.342Z,10.50
2023-04-27T10:45:11.789Z,10.57
2023-04-27T10:48:18.661Z,10.71
2023-04-27T10:51:31.292Z,10.93
2023-04-27T10:54:40.238Z,11.15
2023-04-27T10:57:51.543Z,11.22
2023-04-27T11:00:58.353Z,10.66
2023-04-27T11:04:06.785Z,10.52
2023-04-27T11:07:26.422Z,10.54
2023-04-27T11:10:36.950Z,9.85
2023-04-27T11:13:46.772Z,9.33
2023-04-27T11:16:53.330Z,9.43
2023-04-27T11:20:00.411Z,9.35
2023-04-27T11:23:13.272Z,9.61
2023-04-27T11:26:22.885Z,9.62
2023-04-27T11:29:28.958Z,9.60
2023-04-27T11:32:36.779Z,9.83
2023-04-27T11:35:43.182Z,9.55
2023-04-27T11:38:52.956Z,9.18
2023-04-27T11:41:59.049Z,9.51
2023-04-27T11:45:09.663Z,9.31
2023-04-27T11:48:19.338Z,9.32
2023-04-27T11:51:29.218Z,9.63
2023-04-27T11:54:38.030Z,9.99
2023-04-27T11:57:45.678Z,10.40
2023-04-27T12:00:52.279Z,10.39
2023-04-27T12:04:02.259Z,10.60
2023-04-27T12:07:16.948Z,10.17
2023-04-27T12:10:25.974Z,10.16
2023-04-27T12:13:32.032Z,9.90
2023-04-27T12:16:45.436Z,10.07
2023-04-27T12:19:51.810Z,10.20
2023-04-27T12:23:01.656Z,9.94
2023-04-27T12:26:07.829Z,10.07
2023-04-27T12:29:14.636Z,10.56
2023-04-27T12:32:20.540Z,10.17
2023-04-27T12:35:27.682Z,10.58
2023-04-27T12:38:36.521Z,10.47
2023-04-27T12:41:43.349Z,10.34
2023-04-27T12:44:49.230Z,10.48
2023-04-27T12:48:04.018Z,10.40
2023-04-27T12:51:10.468Z,10.45
2023-04-27T12:54:20.218Z,10.54
2023-04-27T12:57:29.425Z,10.29
2023-04-27T13:00:37.051Z,10.25
2023-04-27T13:03:43.215Z,10.66
2023-04-27T13:06:50.329Z,10.36
2023-04-27T13:09:59.081Z,10.13
2023-04-27T13:13:07.313Z,10.17
2023-04-27T13:16:13.444Z,10.39
2023-04-27T13:19:20.339Z,10.25
2023-04-27T13:22:28.514Z,10.53
2023-04-27T13:25:37.951Z,10.66
2023-04-27T13:28:44.069Z,10.94
2023-04-27T13:31:51.004Z,10.97
2023-04-27T13:34:57.003Z,10.35
2023-04-27T13:38:03.940Z,10.30
2023-04-27T13:41:12.890Z,10.51
2023-04-27T13:44:21.705Z,10.58
2023-04-27T13:47:29.557Z,10.39
2023-04-27T13:50:37.258Z,10.37
2023-04-27T13:53:43.216Z,10.10
2023-04-27T13:56:58.688Z,9.79
2023-04-27T14:00:08.169Z,9.71
2023-04-27T14:03:16.472Z,9.42
2023-04-27T14:06:22.693Z,9.39
2023-04-27T14:09:29.625Z,9.46
2023-04-27T14:12:38.982Z,9.31
2023-04-27T14:15:46.125Z,9.31
2023-04-27T14:18:52.632Z,9.22
2023-04-27T14:22:02.476Z,9.46
2023-04-27T14:25:10.105Z,9.48
2023-04-27T14:28:19.756Z,9.26
2023-04-27T14:31:28.439Z,9.59
2023-04-27T14:34:35.385Z,9.93
2023-04-27T14:37:41.391Z,9.70
2023-04-27T14:40:48.174Z,9.88
2023-04-27T14:44:05.055Z,9.96
2023-04-27T14:47:13.912Z,9.69
2023-04-27T14:50:20.476Z,9.70
2023-04-27T14:53:27.336Z,9.53
2023-04-27T14:56:34.037Z,9.63
2023-04-27T14:59:43.508Z,9.64
2023-04-27T15:02:49.623Z,9.67
2023-04-27T15:05:56.524Z,9.67
2023-04-27T15:09:02.601Z,9.45
2023-04-27T15:12:12.409Z,9.39
2023-04-27T15:15:21.263Z,9.02
2023-04-27T15:18:29.066Z,9.16
2023-04-27T15:21:35.432Z,8.94
2023-04-27T15:24:42.239Z,9.07
2023-04-27T15:27:48.382Z,9.09
2023-04-27T15:30:57.960Z,9.00
2023-04-27T15:34:06.712Z,8.91
2023-04-27T15:37:19.153Z,9.01
2023-04-27T15:40:29.211Z,9.20
2023-04-27T15:43:36.732Z,9.06
2023-04-27T15:46:45.446Z,9.25
2023-04-27T15:49:58.366Z,9.09
2023-04-27T15:53:07.966Z,9.09
2023-04-27T15:56:16.102Z,9.26
2023-04-27T15:59:22.340Z,8.96
2023-04-27T16:02:31.863Z,9.09
2023-04-27T16:05:37.899Z,9.18
2023-04-27T16:08:44.845Z,9.12
2023-04-27T16:11:50.856Z,8.88
2023-04-27T16:15:00.057Z,8.92
2023-04-27T16:18:09.594Z,9.04
2023-04-27T16:21:16.969Z,8.90
2023-04-27T16:24:29.535Z,8.90
2023-04-27T16:27:36.380Z,8.67
2023-04-27T16:30:42.565Z,8.79
2023-04-27T16:33:52.440Z,8.77
2023-04-27T16:36:58.994Z,8.49
2023-04-27T16:40:08.510Z,8.53
2023-04-27T16:43:18.350Z,8.56
2023-04-27T16:46:25.382Z,8.47
2023-04-27T16:49:38.742Z,8.55
2023-04-27T16:52:45.791Z,8.65
2023-04-27T16:55:53.732Z,8.53
2023-04-27T16:59:01.661Z,8.42
2023-04-27T17:02:23.170Z,8.40
2023-04-27T17:05:45.808Z,8.42
2023-04-27T17:09:08.520Z,8.28
2023-04-27T17:12:21.052Z,8.32
2023-04-27T17:15:28.944Z,8.30
2023-04-27T17:18:36.241Z,8.24
2023-04-27T17:21:44.838Z,8.24
2023-04-27T17:24:51.722Z,8.23
2023-04-27T17:28:00.109Z,8.32
2023-04-27T17:31:08.288Z,8.25
2023-04-27T17:34:14.930Z,8.17
2023-04-27T17:37:24.413Z,8.03
2023-04-27T17:40:30.571Z,8.04
2023-04-27T17:43:37.921Z,8.06
2023-04-27T17:46:49.942Z,7.99
2023-04-27T17:49:56.831Z,7.96
2023-04-27T17:53:05.362Z,7.79
2023-04-27T17:56:12.326Z,7.64
2023-04-27T17:59:19.678Z,7.53
2023-04-27T18:02:26.713Z,7.51
2023-04-27T18:05:32.962Z,7.42
2023-04-27T18:08:42.358Z,7.40
2023-04-27T18:11:51.281Z,7.30
2023-04-27T18:14:58.887Z,7.18
2023-04-27T18:18:23.169Z,7.07
2023-04-27T18:21:33.276Z,7.00
2023-04-27T18:24:48.513Z,6.92
2023-04-27T18:27:57.341Z,6.85
2023-04-27T18:31:03.502Z,6.77
2023-04-27T18:34:10.226Z,6.69
2023-04-27T18:37:16.729Z,6.64
2023-04-27T18:40:26.453Z,6.58
2023-04-27T18:43:33.903Z,6.52
2023-04-27T18:46:40.617Z,6.46
2023-04-27T18:49:46.662Z,6.33
2023-04-27T18:52:53.666Z,6.15
2023-04-27T18:56:03.286Z,6.09
2023-04-27T18:59:10.121Z,6.05
2023-04-27T19:02:16.272Z,5.87
2023-04-27T19:05:23.299Z,5.77
2023-04-27T19:08:29.257Z,5.69
2023-04-27T19:11:40.127Z,5.52
2023-04-27T19:14:46.122Z,5.19
2023-04-27T19:18:02.850Z,5.16
2023-04-27T19:21:15.891Z,5.12
2023-04-27T19:24:22.758Z,5.05
2023-04-27T19:27:31.509Z,4.99
2023-04-27T19:30:38.516Z,4.92
2023-04-27T19:33:47.425Z,4.86
2023-04-27T19:37:01.813Z,4.77
2023-04-27T19:40:09.769Z,4.73
2023-04-27T19:43:19.650Z,4.65
2023-04-27T19:46:26.913Z,4.60
2023-04-27T19:49:35.800Z,4.53
2023-04-27T19:52:41.768Z,4.41
2023-04-27T19:55:51.912Z,4.34
2023-04-27T19:59:00.515Z,4.30
2023-04-27T20:02:07.532Z,4.24
2023-04-27T20:05:13.961Z,4.19
2023-04-27T20:08:21.002Z,4.12
2023-04-27T20:11:27.966Z,4.08
2023-04-27T20:14:39.013Z,3.96
2023-04-27T20:17:45.147Z,3.92
2023-04-27T20:20:53.522Z,3.86
2023-04-27T20:24:07.550Z,3.79
2023-04-27T20:27:18.730Z,3.69
2023-04-27T20:30:30.752Z,3.66
2023-04-27T20:33:38.578Z,3.57
2023-04-27T20:36:54.556Z,3.57
2023-04-27T20:40:01.610Z,3.53
2023-04-27T20:43:08.358Z,3.53
2023-04-27T20:46:17.769Z,3.52
2023-04-27T20:49:34.555Z,3.48
2023-04-27T20:52:42.086Z,3.43
2023-04-27T20:55:47.970Z,3.31
2023-04-27T20:58:54.688Z,3.29
2023-04-27T21:02:10.267Z,3.24
2023-04-27T21:05:19.006Z,3.16
2023-04-27T21:08:25.183Z,3.14
2023-04-27T21:11:31.932Z,3.06
2023-04-27T21:14:38.000Z,3.03
2023-04-27T21:17:47.415Z,2.91
2023-04-27T21:20:53.642Z,2.85
2023-04-27T21:24:07.264Z,2.85
2023-04-27T21:27:19.746Z,2.79
2023-04-27T21:30:27.125Z,2.80
2023-04-27T21:33:35.784Z,2.80
2023-04-27T21:36:42.829Z,2.79
2023-04-27T21:39:48.907Z,2.78
2023-04-27T21:42:56.711Z,2.73
2023-04-27T21:46:02.636Z,2.71
2023-04-27T21:49:20.586Z,2.70
2023-04-27T21:52:28.009Z,2.67
2023-04-27T21:55:34.797Z,2.56
2023-04-27T21:58:40.698Z,2.35
2023-04-27T22:01:47.434Z,2.31
2023-04-27T22:04:56.894Z,2.31
2023-04-27T22:08:03.926Z,2.35
2023-04-27T22:11:09.803Z,2.36
2023-04-27T22:14:17.354Z,2.38
2023-04-27T22:17:26.443Z,2.39
2023-04-27T22:20:36.177Z,2.35
2023-04-27T22:23:42.077Z,2.35
2023-04-27T22:26:48.826Z,2.33
2023-04-27T22:29:54.730Z,2.33
2023-04-27T22:33:08.633Z,2.28
2023-04-27T22:36:22.977Z,2.26
2023-04-27T22:39:29.803Z,2.17
2023-04-27T22:42:35.861Z,2.12
2023-04-27T22:45:42.634Z,2.06
2023-04-27T22:48:49.054Z,2.16
2023-04-27T22:51:58.787Z,2.24
2023-04-27T22:55:15.800Z,2.32
2023-04-27T22:58:24.593Z,2.32
2023-04-27T23:01:30.576Z,2.36
2023-04-27T23:04:37.508Z,2.39
2023-04-27T23:07:46.718Z,2.36
2023-04-27T23:10:54.507Z,2.42
2023-04-27T23:14:00.519Z,2.52
2023-04-27T23:17:07.726Z,2.61
2023-04-27T23:20:27.502Z,2.56
2023-04-27T23:23:37.702Z,2.61
2023-04-27T23:26:43.527Z,2.74
2023-04-27T23:29:50.202Z,2.89
2023-04-27T23:32:56.244Z,3.01
2023-04-27T23:36:03.237Z,2.99
2023-04-27T23:39:12.070Z,2.78
2023-04-27T23:42:19.015Z,2.76
2023-04-27T23:45:25.005Z,2.79
2023-04-27T23:48:31.864Z,2.80
2023-04-27T23:51:37.897Z,2.70
2023-04-27T23:54:47.275Z,2.76
2023-04-27T23:57:55.005Z,2.70
